sensor_id;sensor_type;location;lat;lon;timestamp;P1;durP1;ratioP1;P2;durP2;ratioP2
77868;SDS011;67231;59.144;37.934;2023-03-05T00:00:44;6.60;;;2.55;;
77868;SDS011;67231;59.144;37.934;2023-03-05T00:03:10;5.82;;;2.72;;
77868;SDS011;67231;59.144;37.934;2023-03-05T00:05:36;3.97;;;2.20;;
77868;SDS011;67231;59.144;37.934;2023-03-05T00:08:02;4.28;;;2.33;;
77868;SDS011;67231;59.144;37.934;2023-03-05T00:10:28;6.03;;;2.67;;
77868;SDS011;67231;59.144;37.934;2023-03-05T00:12:55;3.90;;;2.10;;
77868;SDS011;67231;59.144;37.934;2023-03-05T00:15:21;4.75;;;2.50;;
77868;SDS011;67231;59.144;37.934;2023-03-05T00:17:47;5.13;;;2.22;;
77868;SDS011;67231;59.144;37.934;2023-03-05T00:20:13;5.63;;;2.13;;
77868;SDS011;67231;59.144;37.934;2023-03-05T00:22:39;4.05;;;2.15;;
77868;SDS011;67231;59.144;37.934;2023-03-05T00:25:05;4.68;;;2.08;;
77868;SDS011;67231;59.144;37.934;2023-03-05T00:27:32;3.58;;;1.58;;
77868;SDS011;67231;59.144;37.934;2023-03-05T00:29:58;6.28;;;2.35;;
77868;SDS011;67231;59.144;37.934;2023-03-05T00:32:24;4.85;;;2.30;;
77868;SDS011;67231;59.144;37.934;2023-03-05T00:34:50;4.75;;;2.30;;
77868;SDS011;67231;59.144;37.934;2023-03-05T00:37:16;4.15;;;2.10;;
77868;SDS011;67231;59.144;37.934;2023-03-05T00:39:42;5.88;;;2.35;;
77868;SDS011;67231;59.144;37.934;2023-03-05T00:42:08;4.32;;;2.13;;
77868;SDS011;67231;59.144;37.934;2023-03-05T00:44:34;4.03;;;1.90;;
77868;SDS011;67231;59.144;37.934;2023-03-05T00:47:01;4.00;;;2.15;;
77868;SDS011;67231;59.144;37.934;2023-03-05T00:49:27;4.75;;;2.15;;
77868;SDS011;67231;59.144;37.934;2023-03-05T00:51:53;4.90;;;2.00;;
77868;SDS011;67231;59.144;37.934;2023-03-05T00:54:19;3.85;;;1.90;;
77868;SDS011;67231;59.144;37.934;2023-03-05T00:56:46;4.13;;;2.20;;
77868;SDS011;67231;59.144;37.934;2023-03-05T00:59:13;3.60;;;1.90;;
77868;SDS011;67231;59.144;37.934;2023-03-05T01:01:40;4.20;;;1.92;;
77868;SDS011;67231;59.144;37.934;2023-03-05T01:04:07;4.68;;;2.15;;
77868;SDS011;67231;59.144;37.934;2023-03-05T01:06:33;4.65;;;2.30;;
77868;SDS011;67231;59.144;37.934;2023-03-05T01:09:00;5.72;;;2.20;;
77868;SDS011;67231;59.144;37.934;2023-03-05T01:11:26;4.78;;;1.83;;
77868;SDS011;67231;59.144;37.934;2023-03-05T01:13:52;4.00;;;2.00;;
77868;SDS011;67231;59.144;37.934;2023-03-05T01:16:18;3.72;;;2.00;;
77868;SDS011;67231;59.144;37.934;2023-03-05T01:18:44;4.15;;;2.25;;
77868;SDS011;67231;59.144;37.934;2023-03-05T01:21:10;3.65;;;2.03;;
77868;SDS011;67231;59.144;37.934;2023-03-05T01:23:36;3.72;;;2.17;;
77868;SDS011;67231;59.144;37.934;2023-03-05T01:26:03;5.82;;;2.25;;
77868;SDS011;67231;59.144;37.934;2023-03-05T01:28:30;5.22;;;2.13;;
77868;SDS011;67231;59.144;37.934;2023-03-05T01:30:57;5.97;;;2.58;;
77868;SDS011;67231;59.144;37.934;2023-03-05T01:33:23;4.80;;;2.38;;
77868;SDS011;67231;59.144;37.934;2023-03-05T01:35:49;4.50;;;2.30;;
77868;SDS011;67231;59.144;37.934;2023-03-05T01:38:16;4.75;;;2.45;;
77868;SDS011;67231;59.144;37.934;2023-03-05T01:40:42;3.65;;;1.65;;
77868;SDS011;67231;59.144;37.934;2023-03-05T01:45:39;5.13;;;2.60;;
77868;SDS011;67231;59.144;37.934;2023-03-05T01:49:25;4.97;;;2.17;;
77868;SDS011;67231;59.144;37.934;2023-03-05T01:51:47;3.78;;;2.20;;
77868;SDS011;67231;59.144;37.934;2023-03-05T01:54:14;2.60;;;1.70;;
77868;SDS011;67231;59.144;37.934;2023-03-05T01:56:44;4.20;;;2.05;;
77868;SDS011;67231;59.144;37.934;2023-03-05T02:01:42;4.75;;;2.33;;
77868;SDS011;67231;59.144;37.934;2023-03-05T02:04:12;2.50;;;1.60;;
77868;SDS011;67231;59.144;37.934;2023-03-05T02:06:40;3.05;;;1.67;;
77868;SDS011;67231;59.144;37.934;2023-03-05T02:09:08;3.90;;;2.30;;
77868;SDS011;67231;59.144;37.934;2023-03-05T02:11:35;4.13;;;2.20;;
77868;SDS011;67231;59.144;37.934;2023-03-05T02:14:02;3.58;;;1.63;;
77868;SDS011;67231;59.144;37.934;2023-03-05T02:16:29;4.05;;;2.53;;
77868;SDS011;67231;59.144;37.934;2023-03-05T02:19:07;3.33;;;1.58;;
77868;SDS011;67231;59.144;37.934;2023-03-05T02:21:36;4.13;;;2.15;;
77868;SDS011;67231;59.144;37.934;2023-03-05T02:24:08;4.45;;;2.38;;
77868;SDS011;67231;59.144;37.934;2023-03-05T02:26:36;3.67;;;2.20;;
77868;SDS011;67231;59.144;37.934;2023-03-05T02:29:03;4.35;;;2.17;;
77868;SDS011;67231;59.144;37.934;2023-03-05T02:31:32;3.13;;;1.45;;
77868;SDS011;67231;59.144;37.934;2023-03-05T02:33:59;4.43;;;2.00;;
77868;SDS011;67231;59.144;37.934;2023-03-05T02:36:25;4.63;;;2.38;;
77868;SDS011;67231;59.144;37.934;2023-03-05T02:38:53;4.40;;;2.17;;
77868;SDS011;67231;59.144;37.934;2023-03-05T02:41:22;2.80;;;1.40;;
77868;SDS011;67231;59.144;37.934;2023-03-05T02:43:49;5.70;;;2.00;;
77868;SDS011;67231;59.144;37.934;2023-03-05T02:46:15;4.63;;;2.28;;
77868;SDS011;67231;59.144;37.934;2023-03-05T02:48:42;2.53;;;1.55;;
77868;SDS011;67231;59.144;37.934;2023-03-05T02:51:11;4.55;;;1.90;;
77868;SDS011;67231;59.144;37.934;2023-03-05T02:53:37;3.35;;;1.65;;
77868;SDS011;67231;59.144;37.934;2023-03-05T02:56:03;4.22;;;2.10;;
77868;SDS011;67231;59.144;37.934;2023-03-05T02:58:32;4.45;;;2.13;;
77868;SDS011;67231;59.144;37.934;2023-03-05T03:00:58;4.00;;;2.15;;
77868;SDS011;67231;59.144;37.934;2023-03-05T03:03:24;3.35;;;1.83;;
77868;SDS011;67231;59.144;37.934;2023-03-05T03:05:51;5.32;;;2.33;;
77868;SDS011;67231;59.144;37.934;2023-03-05T03:08:17;4.28;;;2.03;;
77868;SDS011;67231;59.144;37.934;2023-03-05T03:10:43;4.10;;;2.08;;
77868;SDS011;67231;59.144;37.934;2023-03-05T03:13:10;2.45;;;1.45;;
77868;SDS011;67231;59.144;37.934;2023-03-05T03:15:36;2.33;;;1.17;;
77868;SDS011;67231;59.144;37.934;2023-03-05T03:18:02;2.92;;;1.52;;
77868;SDS011;67231;59.144;37.934;2023-03-05T03:20:28;3.33;;;2.10;;
77868;SDS011;67231;59.144;37.934;2023-03-05T03:22:55;4.80;;;2.15;;
77868;SDS011;67231;59.144;37.934;2023-03-05T03:25:21;4.35;;;2.10;;
77868;SDS011;67231;59.144;37.934;2023-03-05T03:27:51;4.10;;;1.88;;
77868;SDS011;67231;59.144;37.934;2023-03-05T03:30:17;3.78;;;2.03;;
77868;SDS011;67231;59.144;37.934;2023-03-05T03:32:43;6.07;;;2.47;;
77868;SDS011;67231;59.144;37.934;2023-03-05T03:35:10;3.53;;;1.73;;
77868;SDS011;67231;59.144;37.934;2023-03-05T03:37:36;3.95;;;2.10;;
77868;SDS011;67231;59.144;37.934;2023-03-05T03:40:03;4.43;;;2.05;;
77868;SDS011;67231;59.144;37.934;2023-03-05T03:42:31;4.82;;;2.08;;
77868;SDS011;67231;59.144;37.934;2023-03-05T03:44:57;4.28;;;2.22;;
77868;SDS011;67231;59.144;37.934;2023-03-05T03:47:25;6.18;;;2.30;;
77868;SDS011;67231;59.144;37.934;2023-03-05T03:49:54;4.60;;;2.25;;
77868;SDS011;67231;59.144;37.934;2023-03-05T03:52:20;4.20;;;1.92;;
77868;SDS011;67231;59.144;37.934;2023-03-05T03:54:48;4.15;;;2.05;;
77868;SDS011;67231;59.144;37.934;2023-03-05T03:57:15;3.38;;;1.83;;
77868;SDS011;67231;59.144;37.934;2023-03-05T03:59:41;4.13;;;2.03;;
77868;SDS011;67231;59.144;37.934;2023-03-05T04:02:07;3.58;;;1.50;;
77868;SDS011;67231;59.144;37.934;2023-03-05T04:04:33;4.60;;;1.77;;
77868;SDS011;67231;59.144;37.934;2023-03-05T04:06:59;3.90;;;2.00;;
77868;SDS011;67231;59.144;37.934;2023-03-05T04:09:25;4.63;;;1.95;;
77868;SDS011;67231;59.144;37.934;2023-03-05T04:11:51;5.03;;;2.13;;
77868;SDS011;67231;59.144;37.934;2023-03-05T04:14:17;4.55;;;2.33;;
77868;SDS011;67231;59.144;37.934;2023-03-05T04:16:43;5.28;;;2.20;;
77868;SDS011;67231;59.144;37.934;2023-03-05T04:19:10;4.88;;;2.03;;
77868;SDS011;67231;59.144;37.934;2023-03-05T04:21:36;4.07;;;1.90;;
77868;SDS011;67231;59.144;37.934;2023-03-05T04:24:02;3.60;;;1.73;;
77868;SDS011;67231;59.144;37.934;2023-03-05T04:26:28;3.25;;;1.77;;
77868;SDS011;67231;59.144;37.934;2023-03-05T04:28:54;6.35;;;2.20;;
77868;SDS011;67231;59.144;37.934;2023-03-05T04:31:20;2.97;;;1.63;;
77868;SDS011;67231;59.144;37.934;2023-03-05T04:33:46;4.65;;;2.30;;
77868;SDS011;67231;59.144;37.934;2023-03-05T04:36:12;4.28;;;2.17;;
77868;SDS011;67231;59.144;37.934;2023-03-05T04:38:38;4.95;;;2.28;;
77868;SDS011;67231;59.144;37.934;2023-03-05T04:41:04;6.25;;;2.45;;
77868;SDS011;67231;59.144;37.934;2023-03-05T04:43:31;2.35;;;1.60;;
77868;SDS011;67231;59.144;37.934;2023-03-05T04:45:57;6.05;;;2.17;;
77868;SDS011;67231;59.144;37.934;2023-03-05T04:48:23;4.65;;;2.10;;
77868;SDS011;67231;59.144;37.934;2023-03-05T04:50:49;4.25;;;2.20;;
77868;SDS011;67231;59.144;37.934;2023-03-05T04:53:15;5.35;;;2.40;;
77868;SDS011;67231;59.144;37.934;2023-03-05T04:55:41;4.10;;;1.77;;
77868;SDS011;67231;59.144;37.934;2023-03-05T04:58:08;3.88;;;1.80;;
77868;SDS011;67231;59.144;37.934;2023-03-05T05:00:35;4.55;;;2.10;;
77868;SDS011;67231;59.144;37.934;2023-03-05T05:03:02;3.10;;;1.80;;
77868;SDS011;67231;59.144;37.934;2023-03-05T05:05:28;5.05;;;1.90;;
77868;SDS011;67231;59.144;37.934;2023-03-05T05:07:55;4.63;;;2.20;;
77868;SDS011;67231;59.144;37.934;2023-03-05T05:10:22;4.20;;;2.33;;
77868;SDS011;67231;59.144;37.934;2023-03-05T05:12:49;3.67;;;2.05;;
77868;SDS011;67231;59.144;37.934;2023-03-05T05:15:16;5.32;;;2.25;;
77868;SDS011;67231;59.144;37.934;2023-03-05T05:17:42;5.38;;;2.47;;
77868;SDS011;67231;59.144;37.934;2023-03-05T05:20:09;5.97;;;2.30;;
77868;SDS011;67231;59.144;37.934;2023-03-05T05:22:36;5.47;;;2.60;;
77868;SDS011;67231;59.144;37.934;2023-03-05T05:25:03;4.50;;;2.38;;
77868;SDS011;67231;59.144;37.934;2023-03-05T05:27:29;5.10;;;2.50;;
77868;SDS011;67231;59.144;37.934;2023-03-05T05:29:55;6.68;;;2.78;;
77868;SDS011;67231;59.144;37.934;2023-03-05T05:32:22;4.50;;;1.92;;
77868;SDS011;67231;59.144;37.934;2023-03-05T05:34:53;6.22;;;2.70;;
77868;SDS011;67231;59.144;37.934;2023-03-05T05:37:20;4.68;;;2.30;;
77868;SDS011;67231;59.144;37.934;2023-03-05T05:39:46;5.13;;;2.45;;
77868;SDS011;67231;59.144;37.934;2023-03-05T05:42:18;4.90;;;2.45;;
77868;SDS011;67231;59.144;37.934;2023-03-05T05:44:46;4.85;;;2.45;;
77868;SDS011;67231;59.144;37.934;2023-03-05T05:47:13;6.05;;;2.92;;
77868;SDS011;67231;59.144;37.934;2023-03-05T05:49:40;3.90;;;2.33;;
77868;SDS011;67231;59.144;37.934;2023-03-05T05:52:06;7.25;;;2.95;;
77868;SDS011;67231;59.144;37.934;2023-03-05T05:54:32;6.07;;;2.75;;
77868;SDS011;67231;59.144;37.934;2023-03-05T05:56:59;5.90;;;2.70;;
77868;SDS011;67231;59.144;37.934;2023-03-05T05:59:25;5.75;;;2.78;;
77868;SDS011;67231;59.144;37.934;2023-03-05T06:01:51;6.10;;;2.35;;
77868;SDS011;67231;59.144;37.934;2023-03-05T06:04:17;6.43;;;2.92;;
77868;SDS011;67231;59.144;37.934;2023-03-05T06:06:43;8.30;;;2.90;;
77868;SDS011;67231;59.144;37.934;2023-03-05T06:09:10;5.97;;;2.63;;
77868;SDS011;67231;59.144;37.934;2023-03-05T06:11:36;4.70;;;2.47;;
77868;SDS011;67231;59.144;37.934;2023-03-05T06:14:03;8.52;;;3.45;;
77868;SDS011;67231;59.144;37.934;2023-03-05T06:16:29;11.07;;;4.25;;
77868;SDS011;67231;59.144;37.934;2023-03-05T06:18:55;10.45;;;3.88;;
77868;SDS011;67231;59.144;37.934;2023-03-05T06:21:21;9.55;;;3.58;;
77868;SDS011;67231;59.144;37.934;2023-03-05T06:23:48;7.97;;;3.28;;
77868;SDS011;67231;59.144;37.934;2023-03-05T06:26:16;9.68;;;3.65;;
77868;SDS011;67231;59.144;37.934;2023-03-05T06:28:43;7.20;;;2.85;;
77868;SDS011;67231;59.144;37.934;2023-03-05T06:31:11;13.23;;;4.97;;
77868;SDS011;67231;59.144;37.934;2023-03-05T06:33:47;11.02;;;4.22;;
77868;SDS011;67231;59.144;37.934;2023-03-05T06:36:15;9.13;;;3.88;;
77868;SDS011;67231;59.144;37.934;2023-03-05T06:38:43;9.32;;;3.83;;
77868;SDS011;67231;59.144;37.934;2023-03-05T06:41:11;13.30;;;5.32;;
77868;SDS011;67231;59.144;37.934;2023-03-05T06:43:41;10.60;;;4.70;;
77868;SDS011;67231;59.144;37.934;2023-03-05T06:46:14;11.48;;;4.55;;
77868;SDS011;67231;59.144;37.934;2023-03-05T06:48:44;8.80;;;4.35;;
77868;SDS011;67231;59.144;37.934;2023-03-05T06:51:12;9.88;;;4.15;;
77868;SDS011;67231;59.144;37.934;2023-03-05T06:53:40;8.80;;;3.90;;
77868;SDS011;67231;59.144;37.934;2023-03-05T06:56:06;6.45;;;2.60;;
77868;SDS011;67231;59.144;37.934;2023-03-05T06:58:33;8.88;;;4.13;;
77868;SDS011;67231;59.144;37.934;2023-03-05T07:00:59;9.13;;;3.40;;
77868;SDS011;67231;59.144;37.934;2023-03-05T07:03:25;6.95;;;3.05;;
77868;SDS011;67231;59.144;37.934;2023-03-05T07:05:51;7.68;;;2.67;;
77868;SDS011;67231;59.144;37.934;2023-03-05T07:08:17;6.93;;;3.08;;
77868;SDS011;67231;59.144;37.934;2023-03-05T07:10:43;6.18;;;2.78;;
77868;SDS011;67231;59.144;37.934;2023-03-05T07:13:10;9.25;;;3.90;;
77868;SDS011;67231;59.144;37.934;2023-03-05T07:15:37;4.75;;;2.35;;
77868;SDS011;67231;59.144;37.934;2023-03-05T07:18:04;8.23;;;3.20;;
77868;SDS011;67231;59.144;37.934;2023-03-05T07:20:32;7.60;;;3.40;;
77868;SDS011;67231;59.144;37.934;2023-03-05T07:23:00;6.72;;;3.25;;
77868;SDS011;67231;59.144;37.934;2023-03-05T07:25:26;8.88;;;3.03;;
77868;SDS011;67231;59.144;37.934;2023-03-05T07:27:52;5.60;;;2.78;;
77868;SDS011;67231;59.144;37.934;2023-03-05T07:30:18;7.20;;;2.92;;
77868;SDS011;67231;59.144;37.934;2023-03-05T07:32:44;8.57;;;3.42;;
77868;SDS011;67231;59.144;37.934;2023-03-05T07:35:10;10.07;;;3.90;;
77868;SDS011;67231;59.144;37.934;2023-03-05T07:37:37;2.58;;;1.60;;
77868;SDS011;67231;59.144;37.934;2023-03-05T07:40:03;16.00;;;7.20;;
77868;SDS011;67231;59.144;37.934;2023-03-05T07:42:31;7.72;;;2.72;;
77868;SDS011;67231;59.144;37.934;2023-03-05T07:45:08;8.90;;;3.65;;
77868;SDS011;67231;59.144;37.934;2023-03-05T07:47:35;6.47;;;3.03;;
77868;SDS011;67231;59.144;37.934;2023-03-05T07:50:01;6.93;;;2.90;;
77868;SDS011;67231;59.144;37.934;2023-03-05T07:52:29;8.10;;;3.72;;
77868;SDS011;67231;59.144;37.934;2023-03-05T07:54:55;5.70;;;2.97;;
77868;SDS011;67231;59.144;37.934;2023-03-05T07:57:21;9.27;;;3.75;;
77868;SDS011;67231;59.144;37.934;2023-03-05T07:59:47;7.00;;;3.22;;
77868;SDS011;67231;59.144;37.934;2023-03-05T08:02:13;8.25;;;3.97;;
77868;SDS011;67231;59.144;37.934;2023-03-05T08:04:40;5.95;;;2.63;;
77868;SDS011;67231;59.144;37.934;2023-03-05T08:07:07;6.60;;;2.83;;
77868;SDS011;67231;59.144;37.934;2023-03-05T08:09:34;6.82;;;3.08;;
77868;SDS011;67231;59.144;37.934;2023-03-05T08:12:00;7.97;;;3.60;;
77868;SDS011;67231;59.144;37.934;2023-03-05T08:14:26;6.38;;;2.97;;
77868;SDS011;67231;59.144;37.934;2023-03-05T08:16:52;6.97;;;3.00;;
77868;SDS011;67231;59.144;37.934;2023-03-05T08:19:18;7.80;;;3.50;;
77868;SDS011;67231;59.144;37.934;2023-03-05T08:21:45;9.57;;;3.55;;
77868;SDS011;67231;59.144;37.934;2023-03-05T08:24:12;9.48;;;4.20;;
77868;SDS011;67231;59.144;37.934;2023-03-05T08:26:38;6.93;;;3.50;;
77868;SDS011;67231;59.144;37.934;2023-03-05T08:29:06;9.98;;;4.05;;
77868;SDS011;67231;59.144;37.934;2023-03-05T08:31:33;9.88;;;4.07;;
77868;SDS011;67231;59.144;37.934;2023-03-05T08:34:00;7.80;;;3.67;;
77868;SDS011;67231;59.144;37.934;2023-03-05T08:36:27;13.35;;;4.97;;
77868;SDS011;67231;59.144;37.934;2023-03-05T08:38:54;11.25;;;5.00;;
77868;SDS011;67231;59.144;37.934;2023-03-05T08:41:20;15.25;;;5.13;;
77868;SDS011;67231;59.144;37.934;2023-03-05T08:43:47;10.30;;;4.55;;
77868;SDS011;67231;59.144;37.934;2023-03-05T08:46:13;12.88;;;5.47;;
77868;SDS011;67231;59.144;37.934;2023-03-05T08:48:40;10.43;;;4.63;;
77868;SDS011;67231;59.144;37.934;2023-03-05T08:51:07;11.38;;;4.50;;
77868;SDS011;67231;59.144;37.934;2023-03-05T08:53:35;7.22;;;3.40;;
77868;SDS011;67231;59.144;37.934;2023-03-05T08:56:01;8.70;;;3.95;;
77868;SDS011;67231;59.144;37.934;2023-03-05T08:58:28;7.28;;;3.20;;
77868;SDS011;67231;59.144;37.934;2023-03-05T09:00:55;9.27;;;4.65;;
77868;SDS011;67231;59.144;37.934;2023-03-05T09:03:21;13.38;;;6.00;;
77868;SDS011;67231;59.144;37.934;2023-03-05T09:05:47;16.70;;;5.78;;
77868;SDS011;67231;59.144;37.934;2023-03-05T09:08:14;10.65;;;4.82;;
77868;SDS011;67231;59.144;37.934;2023-03-05T09:10:40;16.05;;;6.53;;
77868;SDS011;67231;59.144;37.934;2023-03-05T09:13:07;12.32;;;5.55;;
77868;SDS011;67231;59.144;37.934;2023-03-05T09:15:34;12.55;;;5.40;;
77868;SDS011;67231;59.144;37.934;2023-03-05T09:18:00;14.80;;;6.97;;
77868;SDS011;67231;59.144;37.934;2023-03-05T09:20:27;9.63;;;4.00;;
77868;SDS011;67231;59.144;37.934;2023-03-05T09:22:53;16.67;;;7.00;;
77868;SDS011;67231;59.144;37.934;2023-03-05T09:25:19;13.63;;;6.10;;
77868;SDS011;67231;59.144;37.934;2023-03-05T09:27:46;10.35;;;4.88;;
77868;SDS011;67231;59.144;37.934;2023-03-05T09:30:13;8.80;;;4.38;;
77868;SDS011;67231;59.144;37.934;2023-03-05T09:32:39;10.07;;;3.92;;
77868;SDS011;67231;59.144;37.934;2023-03-05T09:35:05;5.63;;;2.33;;
77868;SDS011;67231;59.144;37.934;2023-03-05T09:37:32;6.25;;;2.95;;
77868;SDS011;67231;59.144;37.934;2023-03-05T09:39:59;5.00;;;2.38;;
77868;SDS011;67231;59.144;37.934;2023-03-05T09:50:39;4.15;;;2.40;;
77868;SDS011;67231;59.144;37.934;2023-03-05T09:56:20;10.32;;;3.60;;
77868;SDS011;67231;59.144;37.934;2023-03-05T09:58:54;7.97;;;3.80;;
77868;SDS011;67231;59.144;37.934;2023-03-05T10:01:27;6.10;;;2.88;;
77868;SDS011;67231;59.144;37.934;2023-03-05T10:07:12;4.97;;;2.63;;
77868;SDS011;67231;59.144;37.934;2023-03-05T10:09:50;7.85;;;3.47;;
77868;SDS011;67231;59.144;37.934;2023-03-05T10:15:14;9.50;;;4.72;;
77868;SDS011;67231;59.144;37.934;2023-03-05T10:24:02;8.90;;;4.53;;
77868;SDS011;67231;59.144;37.934;2023-03-05T10:26:37;10.48;;;3.80;;
77868;SDS011;67231;59.144;37.934;2023-03-05T10:29:13;8.52;;;3.45;;
77868;SDS011;67231;59.144;37.934;2023-03-05T10:39:51;8.45;;;4.07;;
77868;SDS011;67231;59.144;37.934;2023-03-05T10:42:34;7.22;;;3.40;;
77868;SDS011;67231;59.144;37.934;2023-03-05T10:50:58;9.45;;;4.35;;
77868;SDS011;67231;59.144;37.934;2023-03-05T10:53:58;9.02;;;4.18;;
77868;SDS011;67231;59.144;37.934;2023-03-05T10:56:35;7.32;;;3.50;;
77868;SDS011;67231;59.144;37.934;2023-03-05T10:59:01;7.15;;;4.00;;
77868;SDS011;67231;59.144;37.934;2023-03-05T11:01:28;6.88;;;3.42;;
77868;SDS011;67231;59.144;37.934;2023-03-05T11:04:00;8.15;;;3.63;;
77868;SDS011;67231;59.144;37.934;2023-03-05T11:06:35;7.18;;;3.15;;
77868;SDS011;67231;59.144;37.934;2023-03-05T11:09:21;8.02;;;3.40;;
77868;SDS011;67231;59.144;37.934;2023-03-05T11:14:34;10.40;;;4.05;;
77868;SDS011;67231;59.144;37.934;2023-03-05T11:17:21;10.93;;;4.28;;
77868;SDS011;67231;59.144;37.934;2023-03-05T11:19:53;12.55;;;5.32;;
77868;SDS011;67231;59.144;37.934;2023-03-05T11:22:21;6.72;;;3.13;;
77868;SDS011;67231;59.144;37.934;2023-03-05T11:25:03;6.05;;;3.28;;
77868;SDS011;67231;59.144;37.934;2023-03-05T11:27:48;6.18;;;2.90;;
77868;SDS011;67231;59.144;37.934;2023-03-05T11:30:19;4.97;;;2.28;;
77868;SDS011;67231;59.144;37.934;2023-03-05T11:32:46;6.43;;;3.28;;
77868;SDS011;67231;59.144;37.934;2023-03-05T11:35:29;9.30;;;4.10;;
77868;SDS011;67231;59.144;37.934;2023-03-05T11:38:01;7.50;;;3.40;;
77868;SDS011;67231;59.144;37.934;2023-03-05T11:40:30;6.57;;;2.53;;
77868;SDS011;67231;59.144;37.934;2023-03-05T11:43:00;7.65;;;3.33;;
77868;SDS011;67231;59.144;37.934;2023-03-05T11:45:29;6.82;;;2.60;;
77868;SDS011;67231;59.144;37.934;2023-03-05T11:48:03;10.95;;;4.32;;
77868;SDS011;67231;59.144;37.934;2023-03-05T11:50:34;13.77;;;5.72;;
77868;SDS011;67231;59.144;37.934;2023-03-05T11:53:03;8.18;;;4.40;;
77868;SDS011;67231;59.144;37.934;2023-03-05T11:55:35;11.05;;;5.40;;
77868;SDS011;67231;59.144;37.934;2023-03-05T12:00:51;12.68;;;4.90;;
77868;SDS011;67231;59.144;37.934;2023-03-05T12:03:21;17.33;;;6.68;;
77868;SDS011;67231;59.144;37.934;2023-03-05T12:05:59;11.45;;;5.80;;
77868;SDS011;67231;59.144;37.934;2023-03-05T12:08:40;10.75;;;5.13;;
77868;SDS011;67231;59.144;37.934;2023-03-05T12:11:14;8.70;;;4.22;;
77868;SDS011;67231;59.144;37.934;2023-03-05T12:13:50;11.10;;;4.85;;
77868;SDS011;67231;59.144;37.934;2023-03-05T12:16:27;10.82;;;4.97;;
77868;SDS011;67231;59.144;37.934;2023-03-05T12:21:40;8.05;;;3.42;;
77868;SDS011;67231;59.144;37.934;2023-03-05T12:30:07;9.13;;;3.88;;
77868;SDS011;67231;59.144;37.934;2023-03-05T12:33:01;7.50;;;3.92;;
77868;SDS011;67231;59.144;37.934;2023-03-05T12:35:21;6.75;;;3.15;;
77868;SDS011;67231;59.144;37.934;2023-03-05T12:46:30;7.05;;;3.55;;
77868;SDS011;67231;59.144;37.934;2023-03-05T12:48:57;7.38;;;3.65;;
77868;SDS011;67231;59.144;37.934;2023-03-05T12:51:31;16.05;;;8.57;;
77868;SDS011;67231;59.144;37.934;2023-03-05T12:56:45;9.70;;;4.97;;
77868;SDS011;67231;59.144;37.934;2023-03-05T12:59:12;8.07;;;3.72;;
77868;SDS011;67231;59.144;37.934;2023-03-05T13:01:53;10.88;;;4.55;;
77868;SDS011;67231;59.144;37.934;2023-03-05T13:04:25;14.73;;;5.53;;
77868;SDS011;67231;59.144;37.934;2023-03-05T13:07:00;11.32;;;4.88;;
77868;SDS011;67231;59.144;37.934;2023-03-05T13:09:32;8.88;;;4.90;;
77868;SDS011;67231;59.144;37.934;2023-03-05T13:12:02;8.57;;;4.10;;
77868;SDS011;67231;59.144;37.934;2023-03-05T13:14:44;8.55;;;4.13;;
77868;SDS011;67231;59.144;37.934;2023-03-05T13:19:51;9.82;;;3.92;;
77868;SDS011;67231;59.144;37.934;2023-03-05T13:22:17;10.65;;;4.50;;
77868;SDS011;67231;59.144;37.934;2023-03-05T13:24:43;8.65;;;3.72;;
77868;SDS011;67231;59.144;37.934;2023-03-05T13:27:24;9.80;;;4.35;;
77868;SDS011;67231;59.144;37.934;2023-03-05T13:29:54;11.63;;;4.65;;
77868;SDS011;67231;59.144;37.934;2023-03-05T13:32:24;43.47;;;13.05;;
77868;SDS011;67231;59.144;37.934;2023-03-05T13:34:54;10.27;;;4.07;;
77868;SDS011;67231;59.144;37.934;2023-03-05T13:37:32;8.25;;;3.60;;
77868;SDS011;67231;59.144;37.934;2023-03-05T13:40:03;13.23;;;5.40;;
77868;SDS011;67231;59.144;37.934;2023-03-05T13:42:40;5.75;;;2.50;;
77868;SDS011;67231;59.144;37.934;2023-03-05T13:45:17;7.57;;;3.53;;
77868;SDS011;67231;59.144;37.934;2023-03-05T13:47:55;7.03;;;4.05;;
77868;SDS011;67231;59.144;37.934;2023-03-05T13:50:26;8.40;;;3.88;;
77868;SDS011;67231;59.144;37.934;2023-03-05T13:55:20;11.57;;;4.22;;
77868;SDS011;67231;59.144;37.934;2023-03-05T13:57:49;8.57;;;3.97;;
77868;SDS011;67231;59.144;37.934;2023-03-05T14:00:25;10.30;;;4.30;;
77868;SDS011;67231;59.144;37.934;2023-03-05T14:02:54;9.98;;;4.43;;
77868;SDS011;67231;59.144;37.934;2023-03-05T14:05:22;16.85;;;7.22;;
77868;SDS011;67231;59.144;37.934;2023-03-05T14:07:48;17.58;;;6.72;;
77868;SDS011;67231;59.144;37.934;2023-03-05T14:10:28;10.02;;;3.78;;
77868;SDS011;67231;59.144;37.934;2023-03-05T14:13:04;8.73;;;3.72;;
77868;SDS011;67231;59.144;37.934;2023-03-05T14:15:37;9.77;;;4.40;;
77868;SDS011;67231;59.144;37.934;2023-03-05T14:20:40;10.32;;;5.25;;
77868;SDS011;67231;59.144;37.934;2023-03-05T14:23:43;8.75;;;4.72;;
77868;SDS011;67231;59.144;37.934;2023-03-05T14:26:12;6.15;;;3.13;;
77868;SDS011;67231;59.144;37.934;2023-03-05T14:28:56;7.75;;;3.38;;
77868;SDS011;67231;59.144;37.934;2023-03-05T14:31:26;7.18;;;3.50;;
77868;SDS011;67231;59.144;37.934;2023-03-05T14:33:53;6.10;;;2.95;;
77868;SDS011;67231;59.144;37.934;2023-03-05T14:36:27;6.97;;;3.30;;
77868;SDS011;67231;59.144;37.934;2023-03-05T14:38:54;7.03;;;3.33;;
77868;SDS011;67231;59.144;37.934;2023-03-05T14:43:58;8.77;;;3.20;;
77868;SDS011;67231;59.144;37.934;2023-03-05T14:46:24;6.10;;;3.00;;
77868;SDS011;67231;59.144;37.934;2023-03-05T14:48:50;7.68;;;3.28;;
77868;SDS011;67231;59.144;37.934;2023-03-05T14:51:16;7.38;;;3.45;;
77868;SDS011;67231;59.144;37.934;2023-03-05T14:53:44;8.13;;;3.70;;
77868;SDS011;67231;59.144;37.934;2023-03-05T14:56:21;9.40;;;4.00;;
77868;SDS011;67231;59.144;37.934;2023-03-05T14:58:50;10.68;;;4.70;;
77868;SDS011;67231;59.144;37.934;2023-03-05T15:01:16;8.63;;;3.58;;
77868;SDS011;67231;59.144;37.934;2023-03-05T15:03:43;10.02;;;3.90;;
77868;SDS011;67231;59.144;37.934;2023-03-05T15:06:15;12.20;;;5.65;;
77868;SDS011;67231;59.144;37.934;2023-03-05T15:08:49;15.15;;;6.35;;
77868;SDS011;67231;59.144;37.934;2023-03-05T15:11:15;12.32;;;5.28;;
77868;SDS011;67231;59.144;37.934;2023-03-05T15:13:41;24.95;;;8.35;;
77868;SDS011;67231;59.144;37.934;2023-03-05T15:16:10;14.68;;;5.10;;
77868;SDS011;67231;59.144;37.934;2023-03-05T15:18:40;22.25;;;8.10;;
77868;SDS011;67231;59.144;37.934;2023-03-05T15:21:06;18.02;;;6.07;;
77868;SDS011;67231;59.144;37.934;2023-03-05T15:23:32;19.77;;;8.20;;
77868;SDS011;67231;59.144;37.934;2023-03-05T15:26:03;19.67;;;5.68;;
77868;SDS011;67231;59.144;37.934;2023-03-05T15:28:35;16.90;;;6.35;;
77868;SDS011;67231;59.144;37.934;2023-03-05T15:31:02;9.90;;;3.78;;
77868;SDS011;67231;59.144;37.934;2023-03-05T15:33:30;8.68;;;3.65;;
77868;SDS011;67231;59.144;37.934;2023-03-05T15:35:56;5.05;;;2.45;;
77868;SDS011;67231;59.144;37.934;2023-03-05T15:38:22;15.43;;;5.53;;
77868;SDS011;67231;59.144;37.934;2023-03-05T15:40:49;15.05;;;5.95;;
77868;SDS011;67231;59.144;37.934;2023-03-05T15:43:16;27.55;;;9.20;;
77868;SDS011;67231;59.144;37.934;2023-03-05T15:45:43;20.63;;;7.45;;
77868;SDS011;67231;59.144;37.934;2023-03-05T15:48:10;6.45;;;3.05;;
77868;SDS011;67231;59.144;37.934;2023-03-05T15:50:38;9.57;;;4.78;;
77868;SDS011;67231;59.144;37.934;2023-03-05T15:53:08;7.07;;;3.30;;
77868;SDS011;67231;59.144;37.934;2023-03-05T15:55:38;9.35;;;3.97;;
77868;SDS011;67231;59.144;37.934;2023-03-05T15:58:04;5.68;;;2.78;;